Terminal Aerodrome Forecast
Issued by NWS

Home | Current Version | Previous Version | Text Only | Print | Product List | Glossary On
Versions: 1 2 3 4 5 6 7 8 9 10 11 12 13 14 15 16
000
FTUS43 KDLH 191120
TAFHYR
TAF
KHYR 191120Z 1912/2012 23004KT P6SM FEW250
     FM191800 22009G15KT P6SM FEW250
     FM200200 19007KT P6SM FEW250 WS020/21036KT
     FM200600 18007KT P6SM FEW200=

USA.gov is the U.S. government's official web portal to all federal, state and local government web resources and services.